createdAt,value
2023-05-02T00:00:23.988Z,6.79
2023-05-02T00:02:52.446Z,6.70
2023-05-02T00:05:21.056Z,6.60
2023-05-02T00:07:49.364Z,6.48
2023-05-02T00:10:17.967Z,6.40
2023-05-02T00:12:46.487Z,6.30
2023-05-02T00:15:16.403Z,6.20
2023-05-02T00:17:44.706Z,6.17
2023-05-02T00:20:15.763Z,6.13
2023-05-02T00:22:43.956Z,6.15
2023-05-02T00:25:16.274Z,6.04
2023-05-02T00:27:46.735Z,6.01
2023-05-02T00:30:16.929Z,6.02
2023-05-02T00:32:45.179Z,5.98
2023-05-02T00:35:13.595Z,5.95
2023-05-02T00:37:41.899Z,5.94
2023-05-02T00:40:12.548Z,5.90
2023-05-02T00:42:41.391Z,5.87
2023-05-02T00:45:10.433Z,5.78
2023-05-02T00:47:40.357Z,5.72
2023-05-02T00:50:09.677Z,5.66
2023-05-02T00:52:39.135Z,5.63
2023-05-02T00:55:15.934Z,5.55
2023-05-02T00:57:44.258Z,5.47
2023-05-02T01:00:13.986Z,5.46
2023-05-02T01:02:52.473Z,5.41
2023-05-02T01:05:26.747Z,5.34
2023-05-02T01:08:04.756Z,5.38
2023-05-02T01:10:49.698Z,5.37
2023-05-02T01:13:23.405Z,5.42
2023-05-02T01:15:54.748Z,5.41
2023-05-02T01:18:26.956Z,5.34
2023-05-02T01:21:01.750Z,5.37
2023-05-02T01:23:39.079Z,5.37
2023-05-02T01:26:21.440Z,5.33
2023-05-02T01:29:04.823Z,5.27
2023-05-02T01:31:36.890Z,5.26
2023-05-02T01:34:10.244Z,5.22
2023-05-02T01:36:43.864Z,5.16
2023-05-02T01:39:17.227Z,5.21
2023-05-02T01:41:47.145Z,5.18
2023-05-02T01:44:18.526Z,5.11
2023-05-02T01:46:50.298Z,5.17
2023-05-02T01:49:21.078Z,5.19
2023-05-02T01:51:51.160Z,5.18
2023-05-02T01:54:21.877Z,5.21
2023-05-02T01:57:00.185Z,5.24
2023-05-02T01:59:31.492Z,5.24
2023-05-02T02:02:03.001Z,5.25
2023-05-02T02:04:32.847Z,5.24
2023-05-02T02:07:05.606Z,5.15
2023-05-02T02:09:34.291Z,5.22
2023-05-02T02:12:07.669Z,5.21
2023-05-02T02:14:40.610Z,5.22
2023-05-02T02:17:16.298Z,5.18
2023-05-02T02:19:47.678Z,5.24
2023-05-02T02:22:18.653Z,5.20
2023-05-02T02:24:49.527Z,5.21
2023-05-02T02:27:17.986Z,5.17
2023-05-02T02:29:48.010Z,5.18
2023-05-02T02:32:16.796Z,5.20
2023-05-02T02:34:45.765Z,5.25
2023-05-02T02:37:18.337Z,5.24
2023-05-02T02:39:57.741Z,5.24
2023-05-02T02:42:40.158Z,5.21
2023-05-02T02:45:24.154Z,5.17
2023-05-02T02:48:01.188Z,5.13
2023-05-02T02:50:34.483Z,5.14
2023-05-02T02:53:05.783Z,5.11
2023-05-02T02:55:40.504Z,5.13
2023-05-02T02:58:23.127Z,5.13
2023-05-02T03:00:53.959Z,5.12
2023-05-02T03:03:29.296Z,5.18
2023-05-02T03:05:58.136Z,5.20
2023-05-02T03:08:29.128Z,5.22
2023-05-02T03:10:57.455Z,5.27
2023-05-02T03:13:25.784Z,5.25
2023-05-02T03:16:31.029Z,5.29
2023-05-02T03:19:01.214Z,5.26
2023-05-02T03:21:31.759Z,5.31
2023-05-02T03:24:01.346Z,5.35
2023-05-02T03:26:30.030Z,5.34
2023-05-02T03:28:58.780Z,5.32
2023-05-02T03:31:27.175Z,5.30
2023-05-02T03:33:56.139Z,5.28
2023-05-02T03:36:25.959Z,5.22
2023-05-02T03:38:57.536Z,5.19
2023-05-02T03:41:26.860Z,5.15
2023-05-02T03:43:55.938Z,5.13
2023-05-02T03:46:24.354Z,5.14
2023-05-02T03:48:53.080Z,5.16
2023-05-02T03:51:21.351Z,5.20
2023-05-02T03:53:51.133Z,5.12
2023-05-02T03:56:21.164Z,5.05
2023-05-02T03:58:53.759Z,5.00
2023-05-02T04:01:22.201Z,4.98
2023-05-02T04:03:52.114Z,5.01
2023-05-02T04:06:20.691Z,5.05
2023-05-02T04:08:50.658Z,5.03
2023-05-02T04:11:19.099Z,5.01
2023-05-02T04:13:47.734Z,5.02
2023-05-02T04:16:16.117Z,4.97
2023-05-02T04:18:44.986Z,4.99
2023-05-02T04:21:13.282Z,4.95
2023-05-02T04:23:41.916Z,4.97
2023-05-02T04:26:11.619Z,4.97
2023-05-02T04:28:40.010Z,4.95
2023-05-02T04:31:08.500Z,4.92
2023-05-02T04:33:36.860Z,4.93
2023-05-02T04:36:05.687Z,4.90
2023-05-02T04:38:34.481Z,4.90
2023-05-02T04:41:08.595Z,4.90
2023-05-02T04:43:39.265Z,4.89
2023-05-02T04:46:09.405Z,4.91
2023-05-02T04:48:42.093Z,4.94
2023-05-02T04:51:10.795Z,5.00
2023-05-02T04:53:39.775Z,5.03
2023-05-02T04:56:08.619Z,5.03
2023-05-02T04:58:38.396Z,4.93
2023-05-02T05:01:06.769Z,4.93
2023-05-02T05:03:35.094Z,4.98
2023-05-02T05:06:03.715Z,4.95
2023-05-02T05:08:32.068Z,4.99
2023-05-02T05:11:00.387Z,5.00
2023-05-02T05:13:29.128Z,5.04
2023-05-02T05:15:59.366Z,5.10
2023-05-02T05:18:27.687Z,5.12
2023-05-02T05:20:56.430Z,5.18
2023-05-02T05:23:24.687Z,5.26
2023-05-02T05:25:52.950Z,5.33
2023-05-02T05:28:21.101Z,5.35
2023-05-02T05:30:51.882Z,5.33
2023-05-02T05:33:21.725Z,5.35
2023-05-02T05:35:49.996Z,5.33
2023-05-02T05:38:18.541Z,5.34
2023-05-02T05:40:51.503Z,5.33
2023-05-02T05:43:19.679Z,5.39
2023-05-02T05:45:47.897Z,5.40
2023-05-02T05:48:16.178Z,5.46
2023-05-02T05:50:46.061Z,5.51
2023-05-02T05:53:17.354Z,5.66
2023-05-02T05:55:45.881Z,5.69
2023-05-02T05:58:14.872Z,5.80
2023-05-02T06:00:43.162Z,5.87
2023-05-02T06:03:11.543Z,5.90
2023-05-02T06:05:39.852Z,5.91
2023-05-02T06:08:09.599Z,5.95
2023-05-02T06:10:38.004Z,6.02
2023-05-02T06:13:08.867Z,6.17
2023-05-02T06:15:37.245Z,6.34
2023-05-02T06:18:07.388Z,6.40
2023-05-02T06:20:37.731Z,6.57
2023-05-02T06:23:05.951Z,6.68
2023-05-02T06:25:39.600Z,6.78
2023-05-02T06:28:09.620Z,6.91
2023-05-02T06:30:39.484Z,6.88
2023-05-02T06:33:07.929Z,6.87
2023-05-02T06:35:36.352Z,6.83
2023-05-02T06:38:05.363Z,6.77
2023-05-02T06:40:36.569Z,6.72
2023-05-02T06:43:06.853Z,6.82
2023-05-02T06:45:35.183Z,6.82
2023-05-02T06:48:03.885Z,6.89
2023-05-02T06:50:32.267Z,7.05
2023-05-02T06:53:00.749Z,7.20
2023-05-02T06:55:29.361Z,7.32
2023-05-02T06:57:57.819Z,7.35
2023-05-02T07:00:27.591Z,7.39
2023-05-02T07:02:56.713Z,7.35
2023-05-02T07:05:25.055Z,7.40
2023-05-02T07:08:02.731Z,7.49
2023-05-02T07:10:31.084Z,7.44
2023-05-02T07:13:00.574Z,7.35
2023-05-02T07:15:30.693Z,7.44
2023-05-02T07:17:59.489Z,7.69
2023-05-02T07:20:27.870Z,7.67
2023-05-02T07:22:56.357Z,7.70
2023-05-02T07:25:24.653Z,7.70
2023-05-02T07:27:55.055Z,7.76
2023-05-02T07:30:23.905Z,7.77
2023-05-02T07:32:54.020Z,7.82
2023-05-02T07:35:22.400Z,7.77
2023-05-02T07:37:50.883Z,7.76
2023-05-02T07:40:19.724Z,7.76
2023-05-02T07:42:50.894Z,7.75
2023-05-02T07:45:19.657Z,7.72
2023-05-02T07:47:48.266Z,7.64
2023-05-02T07:50:18.238Z,7.62
2023-05-02T07:52:46.561Z,7.64
2023-05-02T07:55:15.311Z,7.64
2023-05-02T07:57:43.619Z,7.61
2023-05-02T08:00:12.628Z,7.64
2023-05-02T08:02:41.206Z,7.68
2023-05-02T08:05:10.124Z,7.72
2023-05-02T08:07:40.001Z,7.81
2023-05-02T08:10:10.581Z,7.92
2023-05-02T08:12:44.066Z,7.97
2023-05-02T08:15:15.684Z,8.00
2023-05-02T08:17:44.170Z,8.01
2023-05-02T08:20:13.862Z,7.98
2023-05-02T08:22:43.609Z,7.96
2023-05-02T08:25:22.592Z,7.97
2023-05-02T08:27:50.921Z,7.94
2023-05-02T08:30:19.630Z,7.98
2023-05-02T08:32:50.840Z,7.96
2023-05-02T08:35:19.654Z,8.21
2023-05-02T08:37:49.415Z,8.26
2023-05-02T08:40:34.028Z,8.29
2023-05-02T08:43:09.673Z,8.31
2023-05-02T08:45:42.048Z,8.44
2023-05-02T08:48:12.863Z,8.77
2023-05-02T08:50:42.765Z,8.80
2023-05-02T08:53:15.128Z,8.84
2023-05-02T08:55:44.108Z,8.77
2023-05-02T08:58:16.235Z,8.77
2023-05-02T09:00:51.168Z,8.79
2023-05-02T09:03:28.992Z,8.71
2023-05-02T09:06:07.894Z,8.72
2023-05-02T09:08:38.578Z,8.72
2023-05-02T09:11:07.928Z,8.85
2023-05-02T09:13:38.425Z,9.08
2023-05-02T09:16:12.080Z,9.30
2023-05-02T09:18:42.076Z,9.40
2023-05-02T09:21:12.698Z,9.34
2023-05-02T09:23:45.658Z,9.46
2023-05-02T09:26:15.700Z,9.38
2023-05-02T09:28:45.577Z,9.32
2023-05-02T09:31:22.942Z,9.29
2023-05-02T09:34:10.268Z,9.28
2023-05-02T09:36:41.989Z,9.25
2023-05-02T09:39:18.375Z,9.12
2023-05-02T09:41:48.051Z,8.99
2023-05-02T09:44:25.465Z,9.00
2023-05-02T09:46:55.087Z,9.10
2023-05-02T09:49:42.052Z,9.16
2023-05-02T09:52:14.327Z,9.20
2023-05-02T09:54:44.348Z,9.21
2023-05-02T09:57:12.804Z,9.13
2023-05-02T09:59:55.255Z,8.98
2023-05-02T10:02:26.294Z,9.02
2023-05-02T10:04:57.217Z,9.25
2023-05-02T10:07:26.483Z,9.41
2023-05-02T10:09:59.894Z,9.46
2023-05-02T10:12:32.301Z,9.73
2023-05-02T10:15:05.995Z,9.90
2023-05-02T10:17:42.411Z,9.88
2023-05-02T10:20:17.199Z,9.99
2023-05-02T10:22:47.305Z,9.95
2023-05-02T10:25:17.697Z,9.91
2023-05-02T10:27:46.955Z,9.83
2023-05-02T10:30:16.495Z,9.87
2023-05-02T10:32:47.477Z,9.98
2023-05-02T10:35:17.400Z,10.23
2023-05-02T10:37:47.675Z,10.43
2023-05-02T10:40:20.611Z,10.42
2023-05-02T10:42:51.497Z,10.22
2023-05-02T10:45:50.050Z,10.19
2023-05-02T10:48:21.513Z,10.36
2023-05-02T10:50:52.034Z,10.45
2023-05-02T10:53:34.909Z,10.25
2023-05-02T10:56:18.797Z,10.06
2023-05-02T10:58:51.401Z,10.15
2023-05-02T11:01:50.076Z,10.19
2023-05-02T11:04:18.611Z,10.30
2023-05-02T11:07:20.393Z,10.47
2023-05-02T11:09:48.728Z,10.59
2023-05-02T11:12:49.598Z,10.82
2023-05-02T11:15:57.221Z,10.76
2023-05-02T11:18:25.861Z,10.82
2023-05-02T11:21:14.939Z,10.88
2023-05-02T11:23:44.798Z,10.87
2023-05-02T11:26:23.578Z,11.15
2023-05-02T11:28:53.595Z,11.17
2023-05-02T11:32:04.287Z,11.03
2023-05-02T11:34:46.074Z,11.20
2023-05-02T11:37:15.714Z,11.23
2023-05-02T11:39:46.806Z,11.25
2023-05-02T11:42:30.416Z,11.32
2023-05-02T11:45:02.102Z,11.48
2023-05-02T11:47:49.411Z,11.54
2023-05-02T11:50:18.279Z,11.55
2023-05-02T11:52:47.481Z,11.67
2023-05-02T11:55:16.808Z,11.81
2023-05-02T11:57:45.055Z,11.76
2023-05-02T12:00:17.061Z,11.61
2023-05-02T12:02:46.959Z,11.62
2023-05-02T12:05:16.745Z,11.61
2023-05-02T12:07:49.287Z,11.61
2023-05-02T12:10:17.716Z,11.69
2023-05-02T12:12:46.534Z,11.71
2023-05-02T12:15:17.783Z,11.68
2023-05-02T12:17:52.424Z,11.52
2023-05-02T12:20:20.930Z,11.42
2023-05-02T12:22:49.626Z,11.41
2023-05-02T12:25:18.034Z,11.43
2023-05-02T12:28:00.662Z,11.36
2023-05-02T12:30:31.014Z,11.30
2023-05-02T12:33:00.098Z,11.24
2023-05-02T12:35:29.664Z,11.23
2023-05-02T12:38:12.522Z,11.21
2023-05-02T12:40:48.012Z,11.14
2023-05-02T12:43:16.309Z,11.06
2023-05-02T12:45:46.144Z,11.10
2023-05-02T12:48:25.300Z,11.01
2023-05-02T12:50:56.036Z,11.04
2023-05-02T12:53:40.993Z,10.98
2023-05-02T12:56:10.517Z,10.90
2023-05-02T12:58:44.160Z,10.91
2023-05-02T13:01:14.722Z,10.93
2023-05-02T13:03:43.935Z,11.04
2023-05-02T13:06:15.917Z,11.11
2023-05-02T13:08:44.471Z,11.04
2023-05-02T13:11:13.191Z,11.02
2023-05-02T13:13:43.236Z,10.99
2023-05-02T13:16:11.886Z,11.06
2023-05-02T13:18:41.683Z,11.18
2023-05-02T13:21:10.133Z,11.18
2023-05-02T13:23:41.211Z,11.20
2023-05-02T13:26:09.628Z,11.26
2023-05-02T13:28:37.957Z,11.25
2023-05-02T13:31:06.551Z,11.20
2023-05-02T13:33:35.007Z,11.18
2023-05-02T13:38:48.308Z,11.13
2023-05-02T13:41:18.556Z,11.13
2023-05-02T13:43:46.939Z,11.11
2023-05-02T13:46:16.070Z,11.22
2023-05-02T13:48:44.471Z,11.32
2023-05-02T13:51:16.738Z,11.41
2023-05-02T13:53:45.080Z,11.33
2023-05-02T13:56:13.441Z,11.35
2023-05-02T13:58:42.281Z,11.29
2023-05-02T14:01:10.614Z,11.31
2023-05-02T14:03:38.917Z,11.33
2023-05-02T14:06:07.849Z,11.28
2023-05-02T14:08:37.749Z,11.32
2023-05-02T14:11:07.388Z,11.30
2023-05-02T14:13:35.884Z,11.34
2023-05-02T14:16:04.604Z,11.39
2023-05-02T14:18:32.950Z,11.32
2023-05-02T14:21:01.350Z,11.29
2023-05-02T14:23:29.710Z,11.37
2023-05-02T14:25:59.456Z,11.48
2023-05-02T14:28:28.242Z,11.48
2023-05-02T14:30:56.622Z,11.53
2023-05-02T14:33:24.900Z,11.58
2023-05-02T14:35:53.338Z,11.62
2023-05-02T14:38:23.271Z,11.68
2023-05-02T14:40:51.666Z,11.74
2023-05-02T14:43:22.140Z,11.72
2023-05-02T14:45:50.517Z,11.72
2023-05-02T14:48:18.886Z,11.75
2023-05-02T14:50:47.104Z,11.64
2023-05-02T14:53:15.637Z,11.59
2023-05-02T14:55:44.098Z,11.61
2023-05-02T14:58:12.392Z,11.63
2023-05-02T15:00:43.338Z,11.53
2023-05-02T15:03:13.340Z,11.48
2023-05-02T15:05:41.973Z,11.48
2023-05-02T15:08:10.400Z,11.45
2023-05-02T15:10:39.215Z,11.43
2023-05-02T15:13:09.021Z,11.42
2023-05-02T15:15:37.740Z,11.50
2023-05-02T15:18:07.737Z,11.48
2023-05-02T15:20:37.352Z,11.46
2023-05-02T15:23:05.929Z,11.49
2023-05-02T15:25:45.636Z,11.59
2023-05-02T15:28:14.045Z,11.96
2023-05-02T15:30:42.600Z,12.49
2023-05-02T15:33:12.389Z,13.72
2023-05-02T15:35:41.823Z,14.94
2023-05-02T15:38:11.846Z,16.00
2023-05-02T15:40:54.601Z,17.02
2023-05-02T15:43:22.944Z,17.68
2023-05-02T15:45:55.782Z,18.15
2023-05-02T15:48:28.410Z,18.33
2023-05-02T15:50:57.117Z,18.45
2023-05-02T15:53:25.723Z,18.63
2023-05-02T15:55:54.151Z,18.72
2023-05-02T15:58:22.532Z,18.77
2023-05-02T16:00:51.983Z,18.83
2023-05-02T16:03:22.822Z,18.63
2023-05-02T16:05:53.963Z,18.48
2023-05-02T16:08:22.574Z,18.64
2023-05-02T16:10:50.924Z,18.75
2023-05-02T16:13:22.741Z,18.72
2023-05-02T16:15:53.390Z,18.74
2023-05-02T16:18:23.311Z,18.85
2023-05-02T16:20:54.410Z,18.64
2023-05-02T16:23:24.533Z,18.41
2023-05-02T16:25:58.939Z,18.47
2023-05-02T16:28:29.114Z,18.64
2023-05-02T16:30:57.676Z,18.49
2023-05-02T16:33:29.308Z,18.37
2023-05-02T16:36:06.584Z,18.35
2023-05-02T16:38:36.736Z,18.32
2023-05-02T16:41:07.415Z,18.39
2023-05-02T16:43:45.645Z,18.46
2023-05-02T16:46:13.996Z,18.40
2023-05-02T16:48:45.379Z,18.38
2023-05-02T16:51:15.403Z,18.27
2023-05-02T16:53:46.337Z,18.35
2023-05-02T16:56:14.675Z,18.42
2023-05-02T16:58:43.250Z,18.51
2023-05-02T17:01:11.982Z,18.35
2023-05-02T17:03:41.746Z,18.41
2023-05-02T17:06:10.492Z,18.34
2023-05-02T17:08:43.273Z,18.03
2023-05-02T17:11:12.175Z,17.79
2023-05-02T17:13:45.821Z,17.55
2023-05-02T17:16:14.262Z,17.20
2023-05-02T17:18:42.774Z,17.28
2023-05-02T17:21:11.702Z,17.23
2023-05-02T17:23:41.584Z,17.16
2023-05-02T17:26:14.460Z,17.19
2023-05-02T17:28:44.336Z,16.32
2023-05-02T17:31:13.317Z,15.43
2023-05-02T17:33:42.284Z,15.22
2023-05-02T17:36:10.917Z,15.30
2023-05-02T17:38:42.569Z,15.62
2023-05-02T17:41:15.073Z,15.83
2023-05-02T17:43:43.698Z,16.20
2023-05-02T17:46:12.242Z,16.43
2023-05-02T17:48:40.828Z,16.51
2023-05-02T17:51:09.079Z,16.52
2023-05-02T17:53:37.428Z,16.25
2023-05-02T17:56:09.228Z,15.54
2023-05-02T17:58:37.793Z,15.04
2023-05-02T18:01:11.496Z,14.59
2023-05-02T18:03:40.359Z,13.92
2023-05-02T18:06:09.321Z,13.38
2023-05-02T18:08:37.765Z,13.00
2023-05-02T18:11:16.195Z,12.65
2023-05-02T18:13:45.200Z,12.29
2023-05-02T18:16:16.608Z,12.00
2023-05-02T18:18:46.189Z,11.71
2023-05-02T18:21:22.539Z,11.46
2023-05-02T18:23:50.775Z,11.23
2023-05-02T18:26:22.935Z,11.13
2023-05-02T18:28:53.648Z,11.00
2023-05-02T18:31:22.700Z,10.84
2023-05-02T18:33:54.480Z,10.70
2023-05-02T18:36:28.314Z,10.65
2023-05-02T18:39:00.459Z,10.56
2023-05-02T18:41:34.919Z,10.51
2023-05-02T18:44:05.385Z,10.46
2023-05-02T18:46:33.789Z,10.40
2023-05-02T18:49:03.052Z,10.29
2023-05-02T18:51:35.026Z,10.26
2023-05-02T18:54:03.546Z,10.18
2023-05-02T18:56:33.451Z,10.13
2023-05-02T18:59:02.069Z,10.06
2023-05-02T19:01:30.802Z,9.94
2023-05-02T19:06:47.878Z,9.86
2023-05-02T19:09:19.839Z,9.81
2023-05-02T19:11:49.603Z,9.76
2023-05-02T19:14:18.093Z,9.74
2023-05-02T19:16:46.930Z,9.70
2023-05-02T19:19:15.865Z,9.67
2023-05-02T19:21:44.251Z,9.62
2023-05-02T19:24:12.777Z,9.58
2023-05-02T19:26:41.230Z,9.51
2023-05-02T19:29:11.293Z,9.51
2023-05-02T19:31:42.691Z,9.52
2023-05-02T19:34:11.263Z,9.42
2023-05-02T19:36:39.634Z,9.43
2023-05-02T19:39:11.364Z,9.42
2023-05-02T19:41:42.340Z,9.34
2023-05-02T19:44:14.370Z,9.37
2023-05-02T19:46:42.751Z,9.35
2023-05-02T19:49:12.388Z,9.32
2023-05-02T19:51:41.229Z,9.28
2023-05-02T19:54:10.004Z,9.26
2023-05-02T19:56:39.452Z,9.23
2023-05-02T19:59:07.649Z,9.18
2023-05-02T20:01:37.583Z,9.20
2023-05-02T20:04:06.095Z,9.21
2023-05-02T20:06:34.420Z,9.17
2023-05-02T20:09:02.754Z,9.17
2023-05-02T20:11:31.040Z,9.15
2023-05-02T20:14:00.038Z,9.09
2023-05-02T20:16:28.905Z,9.05
2023-05-02T20:18:59.571Z,9.01
2023-05-02T20:21:29.592Z,8.90
2023-05-02T20:24:00.640Z,8.78
2023-05-02T20:26:33.814Z,8.72
2023-05-02T20:29:03.540Z,8.63
2023-05-02T20:31:32.217Z,8.55
2023-05-02T20:34:01.859Z,8.46
2023-05-02T20:36:30.983Z,8.43
2023-05-02T20:38:59.519Z,8.36
2023-05-02T20:41:29.474Z,8.26
2023-05-02T20:43:58.460Z,8.27
2023-05-02T20:46:26.918Z,8.19
2023-05-02T20:48:55.426Z,8.11
2023-05-02T20:51:28.401Z,8.08
2023-05-02T20:53:57.091Z,8.06
2023-05-02T20:56:26.225Z,7.99
2023-05-02T20:58:54.523Z,7.93
2023-05-02T21:01:22.865Z,7.85
2023-05-02T21:03:51.273Z,7.81
2023-05-02T21:06:20.079Z,7.72
2023-05-02T21:08:55.272Z,7.62
2023-05-02T21:11:23.596Z,7.59
2023-05-02T21:13:52.079Z,7.48
2023-05-02T21:16:22.135Z,7.52
2023-05-02T21:18:50.604Z,7.54
2023-05-02T21:21:18.900Z,7.58
2023-05-02T21:24:13.139Z,7.56
2023-05-02T21:26:41.755Z,7.59
2023-05-02T21:29:10.870Z,7.61
2023-05-02T21:31:40.206Z,7.61
2023-05-02T21:34:10.284Z,7.58
2023-05-02T21:36:38.785Z,7.56
2023-05-02T21:39:09.851Z,7.53
2023-05-02T21:41:42.759Z,7.50
2023-05-02T21:44:14.049Z,7.43
2023-05-02T21:46:42.616Z,7.40
2023-05-02T21:49:11.100Z,7.42
2023-05-02T21:51:42.593Z,7.39
2023-05-02T21:54:12.288Z,7.37
2023-05-02T21:56:40.650Z,7.35
2023-05-02T21:59:09.186Z,7.39
2023-05-02T22:01:37.422Z,7.41
2023-05-02T22:04:06.623Z,7.37
2023-05-02T22:06:34.979Z,7.40
2023-05-02T22:09:05.435Z,7.34
2023-05-02T22:11:35.258Z,7.34
2023-05-02T22:14:03.722Z,7.33
2023-05-02T22:16:32.632Z,7.35
2023-05-02T22:19:01.622Z,7.36
2023-05-02T22:21:30.701Z,7.38
2023-05-02T22:23:59.467Z,7.39
2023-05-02T22:26:27.769Z,7.36
2023-05-02T22:28:57.484Z,7.40
2023-05-02T22:31:26.721Z,7.43
2023-05-02T22:33:58.559Z,7.41
2023-05-02T22:36:27.858Z,7.39
2023-05-02T22:38:57.986Z,7.44
2023-05-02T22:41:26.220Z,7.44
2023-05-02T22:44:02.497Z,7.47
2023-05-02T22:46:30.849Z,7.50
2023-05-02T22:48:59.483Z,7.50
2023-05-02T22:51:29.340Z,7.47
2023-05-02T22:53:59.982Z,7.49
2023-05-02T22:56:28.353Z,7.50
2023-05-02T22:58:56.649Z,7.52
2023-05-02T23:01:26.415Z,7.52
2023-05-02T23:03:55.138Z,7.53
2023-05-02T23:06:23.577Z,7.53
2023-05-02T23:08:53.076Z,7.52
2023-05-02T23:11:21.444Z,7.53
2023-05-02T23:13:49.630Z,7.49
2023-05-02T23:16:17.893Z,7.43
2023-05-02T23:18:48.276Z,7.40
2023-05-02T23:21:16.880Z,7.37
2023-05-02T23:23:45.196Z,7.32
2023-05-02T23:26:13.566Z,7.29
2023-05-02T23:28:41.824Z,7.29
2023-05-02T23:31:13.376Z,7.30
2023-05-02T23:33:41.884Z,7.25
2023-05-02T23:36:11.856Z,7.27
2023-05-02T23:38:41.982Z,7.25
2023-05-02T23:41:10.479Z,7.22
2023-05-02T23:43:39.052Z,7.17
2023-05-02T23:46:07.933Z,7.12
2023-05-02T23:48:36.474Z,7.04
2023-05-02T23:51:04.966Z,7.03
2023-05-02T23:53:34.787Z,6.95
2023-05-02T23:56:07.144Z,6.93
2023-05-02T23:58:35.876Z,6.91
